Time;durP1;ratioP1;P1;durP2;ratioP2;P2;SDS_P1;SDS_P2;PMS_P1;PMS_P2;Temp;Humidity;BMP_temperature;BMP_pressure;BME280_temperature;BME280_humidity;BME280_pressure;Samples;Min_cycle;Max_cycle;Signal;HPM_P1;HPM_P2
2023/02/02 00:02:04;;;;;;;24.15;3.35;;;7.30;99.90;;;;;;5017983;28;20040;-95
2023/02/02 00:04:32;;;;;;;19.50;2.75;;;7.30;99.90;;;;;;5035289;28;20043;-94
2023/02/02 00:06:58;;;;;;;10.20;2.55;;;7.30;99.90;;;;;;5035746;28;20045;-96
2023/02/02 00:09:30;;;;;;;31.45;4.43;;;7.30;99.90;;;;;;5018999;28;20037;-95
2023/02/02 00:11:56;;;;;;;16.75;2.92;;;7.30;99.90;;;;;;5016311;28;20026;-94
2023/02/02 00:14:22;;;;;;;25.67;5.00;;;7.30;99.90;;;;;;5016097;28;20021;-93
2023/02/02 00:16:55;;;;;;;22.17;3.80;;;7.30;99.90;;;;;;5016984;28;20024;-92
2023/02/02 00:19:25;;;;;;;20.92;3.60;;;7.30;99.90;;;;;;5014236;28;20049;-94
2023/02/02 00:21:52;;;;;;;10.75;1.70;;;7.30;99.90;;;;;;5016691;28;20032;-95
2023/02/02 00:24:18;;;;;;;21.17;3.15;;;7.30;99.90;;;;;;5040355;28;20030;-93
2023/02/02 00:26:46;;;;;;;11.40;2.33;;;7.30;99.90;;;;;;5026567;28;20037;-94
2023/02/02 00:29:18;;;;;;;10.93;1.90;;;7.30;99.90;;;;;;5018956;28;20103;-95
2023/02/02 00:31:44;;;;;;;22.38;2.70;;;7.30;99.90;;;;;;5016434;28;20120;-95
2023/02/02 00:34:11;;;;;;;16.90;2.33;;;7.30;99.90;;;;;;5016299;28;20057;-94
2023/02/02 00:36:36;;;;;;;20.40;3.00;;;7.40;99.90;;;;;;5016678;28;20022;-95
2023/02/02 00:39:02;;;;;;;22.02;3.90;;;7.40;99.90;;;;;;5016409;28;20105;-93
2023/02/02 00:41:28;;;;;;;16.38;4.78;;;7.40;99.90;;;;;;5016337;28;20040;-94
2023/02/02 00:46:39;;;;;;;20.80;4.35;;;7.30;99.90;;;;;;5032889;28;20083;-95
2023/02/02 00:49:05;;;;;;;19.58;2.85;;;7.40;99.90;;;;;;5016444;28;20022;-95
2023/02/02 00:51:30;;;;;;;20.13;3.05;;;7.40;99.90;;;;;;5037266;28;20541;-94
2023/02/02 00:53:56;;;;;;;16.35;2.65;;;7.30;99.90;;;;;;5034872;28;20022;-87
2023/02/02 00:56:22;;;;;;;23.23;3.25;;;7.30;99.90;;;;;;5016491;28;20033;-93
2023/02/02 00:58:47;;;;;;;26.33;3.60;;;7.30;99.90;;;;;;5033422;28;20037;-92
2023/02/02 01:01:17;;;;;;;13.05;2.25;;;7.30;99.90;;;;;;5034392;28;20387;-95
2023/02/02 01:03:43;;;;;;;14.75;2.30;;;7.30;99.90;;;;;;5017168;28;20032;-95
2023/02/02 01:06:09;;;;;;;20.02;2.83;;;7.30;99.90;;;;;;5033606;28;20037;-95
2023/02/02 01:08:35;;;;;;;10.10;2.20;;;7.30;99.90;;;;;;5015647;28;20044;-95
2023/02/02 01:11:00;;;;;;;10.27;2.13;;;7.30;99.90;;;;;;5015881;28;20077;-94
2023/02/02 01:13:26;;;;;;;13.73;2.25;;;7.30;99.90;;;;;;5016175;28;20014;-96
2023/02/02 01:15:56;;;;;;;12.35;1.70;;;7.30;99.90;;;;;;5016096;28;20022;-93
2023/02/02 01:18:22;;;;;;;14.10;1.97;;;7.30;99.90;;;;;;5016276;28;20021;-95
2023/02/02 01:20:55;;;;;;;15.38;2.00;;;7.30;99.90;;;;;;5013351;28;20292;-95
2023/02/02 01:23:20;;;;;;;16.98;2.95;;;7.30;99.90;;;;;;5015611;28;20048;-94
2023/02/02 01:25:58;;;;;;;16.45;2.40;;;7.20;99.90;;;;;;5015752;28;20029;-94
2023/02/02 01:28:25;;;;;;;13.55;2.35;;;7.30;99.90;;;;;;5019277;28;20059;-94
2023/02/02 01:30:51;;;;;;;17.35;2.42;;;7.20;99.90;;;;;;5033093;28;20029;-95
2023/02/02 01:33:17;;;;;;;13.65;2.22;;;7.20;99.90;;;;;;5019732;28;20109;-95
2023/02/02 01:35:54;;;;;;;16.67;4.22;;;7.20;99.90;;;;;;5020405;28;20022;-95
2023/02/02 01:38:21;;;;;;;14.68;2.33;;;7.20;99.90;;;;;;5019788;28;20060;-96
2023/02/02 01:40:53;;;;;;;10.55;1.80;;;7.20;99.90;;;;;;5019132;28;20018;-95
2023/02/02 01:43:23;;;;;;;14.15;1.88;;;7.20;99.90;;;;;;5020468;28;20061;-95
2023/02/02 01:45:52;;;;;;;;;;;7.20;99.90;;;;;;5035231;28;20024;-95
2023/02/02 01:48:26;;;;;;;16.58;2.30;;;7.20;99.90;;;;;;5021067;28;20019;-95
2023/02/02 01:50:56;;;;;;;29.58;3.83;;;7.20;99.90;;;;;;5036250;28;20036;-94
2023/02/02 01:53:22;;;;;;;15.75;2.05;;;7.20;99.90;;;;;;5041536;28;20033;-94
2023/02/02 01:55:49;;;;;;;12.55;1.80;;;7.20;99.90;;;;;;5048642;28;20071;-93
2023/02/02 01:58:21;;;;;;;13.55;2.47;;;7.20;99.90;;;;;;5046953;28;20057;-93
2023/02/02 02:00:47;;;;;;;10.02;1.85;;;7.20;99.90;;;;;;5044134;28;20060;-94
2023/02/02 02:03:20;;;;;;;10.75;2.17;;;7.20;99.90;;;;;;5044189;28;20012;-95
2023/02/02 02:05:53;;;;;;;15.55;2.13;;;7.20;99.90;;;;;;5058471;28;20029;-94
2023/02/02 02:08:30;;;;;;;17.23;2.35;;;7.20;99.90;;;;;;5040978;28;20024;-95
2023/02/02 02:10:57;;;;;;;14.50;2.10;;;7.20;99.90;;;;;;5038420;28;20028;-93
2023/02/02 02:16:17;;;;;;;14.15;2.38;;;7.20;99.90;;;;;;5039630;28;20025;-95
2023/02/02 02:16:35;;;;;;;13.23;1.95;;;7.20;99.90;;;;;;5054572;28;20029;-93
2023/02/02 02:19:06;;;;;;;11.38;1.95;;;7.20;99.90;;;;;;5003959;28;20036;-92
2023/02/02 02:28:05;;;;;;;10.35;2.58;;;7.20;99.90;;;;;;5056159;28;20134;-94
2023/02/02 02:31:08;;;;;;;8.13;2.03;;;7.20;99.90;;;;;;5027556;28;20037;-95
2023/02/02 02:33:53;;;;;;;13.07;1.88;;;7.20;99.90;;;;;;5035250;28;20032;-94
2023/02/02 02:36:41;;;;;;;21.17;2.70;;;7.20;99.90;;;;;;5036983;28;20028;-94
2023/02/02 02:39:27;;;;;;;13.98;2.35;;;7.20;99.90;;;;;;5038052;28;20486;-95
2023/02/02 02:41:59;;;;;;;12.85;3.40;;;7.20;99.90;;;;;;5036053;28;20449;-94
2023/02/02 02:44:27;;;;;;;22.48;3.75;;;7.10;99.90;;;;;;5036776;28;20360;-95
2023/02/02 02:46:53;;;;;;;13.90;3.58;;;7.10;99.90;;;;;;5037805;28;20489;-94
2023/02/02 02:49:18;;;;;;;12.85;3.13;;;7.10;99.90;;;;;;5055408;28;20033;-94
2023/02/02 02:51:46;;;;;;;11.23;2.58;;;7.10;99.90;;;;;;5037695;28;20025;-93
2023/02/02 02:54:15;;;;;;;8.27;3.20;;;7.10;99.90;;;;;;5037340;28;20474;-95
2023/02/02 02:57:06;;;;;;;9.93;3.33;;;7.10;99.90;;;;;;5037590;28;20045;-95
2023/02/02 02:59:31;;;;;;;;;;;7.10;99.90;;;;;;5000225;28;20053;-94
2023/02/02 03:02:16;;;;;;;10.45;2.90;;;7.20;99.90;;;;;;5037611;28;19913;-95
2023/02/02 03:05:16;;;;;;;10.45;3.38;;;7.20;99.90;;;;;;5036702;28;20170;-95
2023/02/02 03:07:56;;;;;;;10.25;3.25;;;7.20;99.90;;;;;;5036870;28;20037;-96
2023/02/02 03:10:27;;;;;;;12.80;2.50;;;7.20;99.90;;;;;;5036726;28;20525;-95
2023/02/02 03:12:54;;;;;;;20.27;2.83;;;7.20;99.90;;;;;;5035540;28;20060;-94
2023/02/02 03:15:19;;;;;;;11.02;3.40;;;7.20;99.90;;;;;;5037304;28;20034;-94
2023/02/02 03:17:48;;;;;;;10.85;3.00;;;7.20;99.90;;;;;;5055161;28;20017;-95
2023/02/02 03:20:13;;;;;;;12.43;3.00;;;7.10;99.90;;;;;;5037191;28;20474;-94
2023/02/02 03:22:39;;;;;;;10.70;3.55;;;7.10;99.90;;;;;;5037179;28;20158;-95
2023/02/02 03:25:06;;;;;;;10.07;2.10;;;7.10;99.90;;;;;;5037289;28;20036;-94
2023/02/02 03:27:32;;;;;;;11.18;2.13;;;7.10;99.90;;;;;;5036794;28;20033;-95
2023/02/02 03:29:58;;;;;;;14.63;2.78;;;7.10;99.90;;;;;;5036723;28;20029;-96
2023/02/02 03:32:24;;;;;;;8.65;2.72;;;7.20;99.90;;;;;;5054413;28;20151;-94
2023/02/02 03:34:49;;;;;;;9.88;1.80;;;7.20;99.90;;;;;;5038064;28;20033;-94
2023/02/02 03:37:15;;;;;;;9.10;1.90;;;7.20;99.90;;;;;;5036921;28;20032;-94
2023/02/02 03:39:41;;;;;;;13.60;1.70;;;7.20;99.90;;;;;;5054434;28;20044;-96
2023/02/02 03:42:06;;;;;;;10.90;2.03;;;7.20;99.90;;;;;;5036795;28;20025;-94
2023/02/02 03:44:32;;;;;;;13.32;2.10;;;7.10;99.90;;;;;;5036809;28;20029;-94
2023/02/02 03:46:57;;;;;;;8.63;2.22;;;7.10;99.90;;;;;;5036380;28;20016;-95
2023/02/02 03:49:23;;;;;;;8.20;1.67;;;7.10;99.90;;;;;;5036750;28;20037;-94
2023/02/02 03:51:49;;;;;;;19.17;5.22;;;7.10;99.90;;;;;;5054345;28;20056;-94
2023/02/02 03:54:14;;;;;;;9.60;1.75;;;7.10;99.90;;;;;;5036460;28;20458;-94
2023/02/02 03:56:40;;;;;;;9.88;1.70;;;7.00;99.90;;;;;;5036155;28;20021;-95
2023/02/02 03:59:06;;;;;;;11.18;2.30;;;7.00;99.90;;;;;;5036373;28;20541;-95
2023/02/02 04:01:31;;;;;;;10.75;1.80;;;7.00;99.90;;;;;;5036793;28;20478;-96
2023/02/02 04:03:57;;;;;;;10.23;2.65;;;7.00;99.90;;;;;;5040201;28;20021;-96
2023/02/02 04:06:24;;;;;;;11.93;2.28;;;7.00;99.90;;;;;;5047188;28;20037;-96
2023/02/02 04:08:49;;;;;;;7.28;1.92;;;7.00;99.90;;;;;;5043610;28;20143;-94
2023/02/02 04:11:17;;;;;;;13.50;2.22;;;7.00;99.90;;;;;;5057375;28;20144;-94
2023/02/02 04:13:43;;;;;;;9.02;2.50;;;6.90;99.90;;;;;;5058977;28;20025;-87
2023/02/02 04:16:09;;;;;;;11.00;2.80;;;6.90;99.90;;;;;;5057567;28;20016;-91
2023/02/02 04:18:38;;;;;;;13.70;4.72;;;6.90;99.90;;;;;;5059482;28;20084;-92
2023/02/02 04:21:05;;;;;;;10.10;2.22;;;6.90;99.90;;;;;;5059574;28;20101;-89
2023/02/02 04:23:31;;;;;;;13.23;2.60;;;6.90;99.90;;;;;;5060643;28;20005;-89
2023/02/02 04:25:58;;;;;;;12.25;2.30;;;6.90;99.90;;;;;;5060528;28;20055;-95
2023/02/02 04:28:24;;;;;;;9.68;2.25;;;6.90;99.90;;;;;;5043403;28;20032;-92
2023/02/02 04:30:51;;;;;;;14.80;2.63;;;6.90;99.90;;;;;;5055788;28;20033;-94
2023/02/02 04:33:18;;;;;;;10.88;2.15;;;6.90;99.90;;;;;;5050362;28;20027;-95
2023/02/02 04:35:48;;;;;;;12.65;2.30;;;6.90;99.90;;;;;;5052937;28;20099;-92
2023/02/02 04:38:15;;;;;;;5.95;1.88;;;6.90;99.90;;;;;;5047543;28;20093;-96
2023/02/02 04:40:42;;;;;;;11.77;1.98;;;6.90;99.90;;;;;;5059971;28;20035;-93
2023/02/02 04:43:08;;;;;;;7.35;1.98;;;6.80;99.90;;;;;;5058428;28;20017;-96
2023/02/02 04:45:35;;;;;;;8.57;1.83;;;6.80;99.90;;;;;;5048024;28;20032;-96
2023/02/02 04:48:01;;;;;;;13.32;2.63;;;6.80;99.90;;;;;;5067945;28;20080;-96
2023/02/02 04:50:28;;;;;;;7.13;2.20;;;6.80;99.90;;;;;;5050110;28;20041;-94
2023/02/02 04:52:53;;;;;;;10.82;2.40;;;6.80;99.90;;;;;;5047985;28;20047;-95
2023/02/02 04:55:19;;;;;;;11.05;2.42;;;6.80;99.90;;;;;;5041461;28;20471;-95
2023/02/02 04:57:44;;;;;;;10.75;2.30;;;6.80;99.90;;;;;;5042658;28;20459;-96
2023/02/02 05:00:11;;;;;;;7.78;2.63;;;6.80;99.90;;;;;;5054613;28;20041;-95
2023/02/02 05:02:40;;;;;;;10.13;2.67;;;6.80;99.90;;;;;;5036893;28;20025;-95
2023/02/02 05:05:09;;;;;;;6.90;2.33;;;6.80;99.90;;;;;;5035966;28;20035;-94
2023/02/02 05:07:35;;;;;;;7.93;2.80;;;6.80;99.90;;;;;;5041590;28;20017;-94
2023/02/02 05:10:02;;;;;;;7.90;2.53;;;6.80;99.90;;;;;;5052470;28;20025;-92
2023/02/02 05:12:28;;;;;;;9.73;2.78;;;6.80;99.90;;;;;;5047335;28;20025;-94
2023/02/02 05:14:53;;;;;;;6.13;2.67;;;6.90;99.90;;;;;;5044629;28;20584;-92
2023/02/02 05:17:19;;;;;;;8.68;2.70;;;6.80;99.90;;;;;;5059945;28;20456;-93
2023/02/02 05:19:45;;;;;;;7.55;2.50;;;6.90;99.90;;;;;;5056673;28;20022;-94
2023/02/02 05:22:10;;;;;;;11.45;3.45;;;6.90;99.90;;;;;;5056536;28;20021;-91
2023/02/02 05:24:36;;;;;;;4.63;2.45;;;6.80;99.90;;;;;;5039198;28;20021;-95
2023/02/02 05:27:02;;;;;;;4.00;2.92;;;6.90;99.90;;;;;;5039115;28;20029;-92
2023/02/02 05:29:29;;;;;;;7.28;3.10;;;6.80;99.90;;;;;;5037077;28;20033;-94
2023/02/02 05:31:55;;;;;;;6.43;2.83;;;6.80;99.90;;;;;;5055191;28;20017;-95
2023/02/02 05:34:22;;;;;;;3.55;2.63;;;6.90;99.90;;;;;;5039727;28;20052;-94
2023/02/02 05:36:48;;;;;;;7.63;2.55;;;6.80;99.90;;;;;;5054442;28;20033;-93
2023/02/02 05:39:13;;;;;;;5.55;2.90;;;6.80;99.90;;;;;;5037009;28;20028;-93
2023/02/02 05:41:39;;;;;;;11.73;3.25;;;6.80;99.90;;;;;;5039289;28;20025;-93
2023/02/02 05:44:05;;;;;;;9.05;3.60;;;6.80;99.90;;;;;;5046287;28;20025;-90
2023/02/02 05:46:30;;;;;;;9.07;2.83;;;6.90;99.90;;;;;;5051242;28;20036;-93
2023/02/02 05:48:58;;;;;;;8.30;2.22;;;6.90;99.90;;;;;;5058034;28;20021;-93
2023/02/02 05:51:30;;;;;;;7.85;2.55;;;6.90;99.90;;;;;;5037186;28;20044;-95
2023/02/02 05:53:56;;;;;;;6.95;2.20;;;6.90;99.90;;;;;;5035655;28;20051;-93
2023/02/02 05:56:21;;;;;;;5.88;2.20;;;6.90;99.90;;;;;;5046844;28;20025;-93
2023/02/02 05:58:48;;;;;;;9.95;2.90;;;6.90;99.90;;;;;;5055333;28;20021;-92
2023/02/02 06:01:15;;;;;;;7.05;2.55;;;6.90;99.90;;;;;;5073836;28;20051;-92
2023/02/02 06:03:41;;;;;;;12.00;3.55;;;6.90;99.90;;;;;;5072117;28;20005;-92
2023/02/02 06:06:07;;;;;;;5.82;2.50;;;7.00;99.90;;;;;;5073389;28;20055;-89
2023/02/02 06:08:34;;;;;;;8.77;2.47;;;7.00;99.90;;;;;;5074035;28;20031;-93
2023/02/02 06:11:03;;;;;;;9.77;3.03;;;7.00;99.90;;;;;;5074011;28;20045;-94
2023/02/02 06:13:31;;;;;;;8.52;3.22;;;7.00;99.90;;;;;;5070760;28;20027;-91
2023/02/02 06:15:56;;;;;;;7.43;3.63;;;7.10;99.90;;;;;;5074142;28;20039;-93
2023/02/02 06:18:22;;;;;;;6.72;3.70;;;7.10;99.90;;;;;;5056643;28;20021;-90
2023/02/02 06:20:47;;;;;;;6.85;3.35;;;7.10;99.90;;;;;;5066078;28;20029;-92
2023/02/02 06:23:13;;;;;;;20.25;5.57;;;7.10;99.90;;;;;;5044773;28;20021;-94
2023/02/02 06:25:39;;;;;;;10.02;5.00;;;7.20;99.90;;;;;;5042178;28;20029;-93
2023/02/02 06:28:04;;;;;;;11.20;5.10;;;7.20;99.90;;;;;;5041203;28;20487;-93
2023/02/02 06:30:30;;;;;;;9.50;3.72;;;7.20;99.90;;;;;;5060746;28;20029;-93
2023/02/02 06:32:58;;;;;;;5.63;4.10;;;7.20;99.90;;;;;;5043864;28;20055;-94
2023/02/02 06:35:24;;;;;;;6.05;4.07;;;7.30;99.90;;;;;;5058469;28;20035;-94
2023/02/02 06:37:49;;;;;;;13.13;4.78;;;7.30;99.90;;;;;;5057703;28;20096;-95
2023/02/02 06:40:15;;;;;;;9.82;5.65;;;7.30;99.90;;;;;;5057551;28;20043;-93
2023/02/02 06:42:41;;;;;;;10.20;5.93;;;7.30;99.90;;;;;;5039551;28;20024;-93
2023/02/02 06:45:07;;;;;;;10.77;5.72;;;7.30;99.90;;;;;;5056907;28;20021;-92
2023/02/02 06:47:33;;;;;;;12.30;5.75;;;7.40;99.90;;;;;;5039068;28;20021;-92
2023/02/02 06:49:58;;;;;;;7.88;4.25;;;7.40;99.90;;;;;;5038774;28;20110;-93
2023/02/02 06:52:24;;;;;;;9.23;5.20;;;7.40;99.90;;;;;;5057422;28;20598;-94
2023/02/02 06:54:50;;;;;;;9.93;5.50;;;7.40;99.90;;;;;;5041185;28;20112;-92
2023/02/02 06:57:16;;;;;;;10.93;5.57;;;7.40;99.90;;;;;;5048788;28;20021;-94
2023/02/02 06:59:41;;;;;;;8.70;4.72;;;7.50;99.90;;;;;;5047591;28;20051;-92
2023/02/02 07:02:12;;;;;;;8.30;3.72;;;7.50;99.90;;;;;;5046333;28;20025;-94
2023/02/02 07:04:37;;;;;;;6.50;4.28;;;7.50;99.90;;;;;;5040295;28;20402;-90
2023/02/02 07:07:03;;;;;;;13.43;6.28;;;7.50;99.90;;;;;;5056557;28;20033;-92
2023/02/02 07:09:32;;;;;;;8.90;6.75;;;7.50;99.90;;;;;;5035805;28;20028;-92
2023/02/02 07:11:58;;;;;;;11.13;6.53;;;7.60;99.90;;;;;;5030362;28;20115;-94
2023/02/02 07:14:24;;;;;;;24.65;7.70;;;7.60;99.90;;;;;;5038343;28;20049;-96
2023/02/02 07:16:49;;;;;;;14.75;6.45;;;7.60;99.90;;;;;;5037945;28;20044;-94
2023/02/02 07:19:15;;;;;;;12.20;5.95;;;7.50;99.90;;;;;;5037078;28;20032;-94
2023/02/02 07:21:41;;;;;;;8.60;5.80;;;7.60;99.90;;;;;;5037610;28;20025;-93
2023/02/02 07:24:07;;;;;;;13.20;5.80;;;7.50;99.90;;;;;;5036508;28;20078;-94
2023/02/02 07:26:34;;;;;;;10.88;5.82;;;7.50;99.90;;;;;;5038368;28;20115;-91
2023/02/02 07:29:01;;;;;;;7.63;5.68;;;7.60;99.90;;;;;;5056723;28;20033;-92
2023/02/02 07:31:28;;;;;;;16.52;5.45;;;7.60;99.90;;;;;;5037471;28;20040;-95
2023/02/02 07:33:53;;;;;;;10.95;5.65;;;7.60;99.90;;;;;;5036637;28;20149;-95
2023/02/02 07:36:22;;;;;;;11.32;5.22;;;7.60;99.90;;;;;;5054420;28;20033;-93
2023/02/02 07:38:50;;;;;;;9.07;5.25;;;7.60;99.90;;;;;;5036028;28;20013;-93
2023/02/02 07:41:16;;;;;;;11.48;4.80;;;7.60;99.90;;;;;;5036166;28;20029;-90
2023/02/02 07:43:42;;;;;;;12.15;4.68;;;7.60;99.90;;;;;;5037318;28;20028;-96
2023/02/02 07:46:11;;;;;;;15.18;5.72;;;7.60;99.90;;;;;;5055218;28;20082;-94
2023/02/02 07:48:38;;;;;;;7.97;4.50;;;7.60;99.90;;;;;;5034985;28;20017;-94
2023/02/02 07:51:06;;;;;;;15.70;6.03;;;7.60;99.90;;;;;;5053825;28;20038;-93
2023/02/02 07:53:33;;;;;;;7.05;4.85;;;7.60;99.90;;;;;;5037829;28;20029;-96
2023/02/02 07:56:13;;;;;;;9.10;4.80;;;7.60;99.90;;;;;;5039849;28;20040;-94
2023/02/02 07:58:39;;;;;;;13.17;5.50;;;7.70;99.90;;;;;;5035696;28;20105;-95
2023/02/02 08:01:07;;;;;;;9.60;5.10;;;7.70;99.90;;;;;;5019262;28;20053;-96
2023/02/02 08:03:34;;;;;;;10.73;5.18;;;7.70;99.90;;;;;;5020063;28;20032;-95
2023/02/02 08:06:00;;;;;;;11.68;5.53;;;7.70;99.90;;;;;;5019891;28;20029;-94
2023/02/02 08:08:26;;;;;;;10.55;4.50;;;7.80;99.90;;;;;;5017010;28;20375;-92
2023/02/02 08:14:04;;;;;;;7.97;3.45;;;7.90;99.90;;;;;;5529374;23;20061;-93
2023/02/02 08:16:31;;;;;;;6.90;3.25;;;8.00;99.90;;;;;;5036949;28;20033;-95
2023/02/02 08:18:57;;;;;;;8.13;3.70;;;8.00;99.90;;;;;;5042935;28;20029;-93
2023/02/02 08:21:26;;;;;;;8.20;4.30;;;8.00;99.90;;;;;;5046630;28;20044;-94
2023/02/02 08:23:53;;;;;;;6.13;2.88;;;8.00;99.90;;;;;;5045994;28;20017;-94
2023/02/02 08:26:25;;;;;;;9.30;3.53;;;8.00;99.90;;;;;;5044456;28;20051;-94
2023/02/02 08:29:00;;;;;;;7.68;2.75;;;8.00;99.90;;;;;;5042704;28;20033;-94
2023/02/02 08:31:30;;;;;;;5.38;2.30;;;8.00;99.90;;;;;;5042169;28;20044;-95
2023/02/02 08:33:59;;;;;;;3.80;2.25;;;8.00;99.90;;;;;;5038124;28;20016;-95
2023/02/02 08:36:30;;;;;;;3.53;2.08;;;8.00;99.90;;;;;;5037443;28;20586;-96
2023/02/02 08:39:10;;;;;;;5.78;2.10;;;8.10;99.90;;;;;;5037998;28;20112;-94
2023/02/02 08:41:40;;;;;;;3.25;1.92;;;8.00;99.90;;;;;;5036722;28;20096;-96
2023/02/02 08:44:10;;;;;;;7.53;1.52;;;8.00;99.90;;;;;;5037046;28;20070;-96
2023/02/02 08:46:35;;;;;;;3.50;1.97;;;8.10;99.90;;;;;;5037617;28;20029;-93
2023/02/02 08:49:01;;;;;;;3.63;1.25;;;8.10;99.90;;;;;;5037702;28;20032;-95
2023/02/02 08:51:28;;;;;;;7.22;2.40;;;8.10;99.90;;;;;;5037066;28;20037;-95
2023/02/02 08:53:53;;;;;;;8.02;2.20;;;8.10;99.90;;;;;;5037619;28;20089;-96
2023/02/02 08:56:20;;;;;;;6.97;1.95;;;8.10;99.90;;;;;;5038232;28;20032;-96
2023/02/02 08:58:48;;;;;;;5.43;2.00;;;8.10;99.90;;;;;;5038046;28;20021;-95
2023/02/02 09:01:23;;;;;;;6.60;2.00;;;8.10;99.90;;;;;;5034460;28;20025;-95
2023/02/02 09:03:56;;;;;;;6.72;2.50;;;8.20;99.90;;;;;;5026739;28;20055;-95
2023/02/02 09:06:27;;;;;;;5.15;1.52;;;8.20;99.90;;;;;;5039559;28;20550;-95
2023/02/02 09:08:53;;;;;;;8.90;2.92;;;8.30;99.90;;;;;;5028814;28;20021;-95
2023/02/02 09:11:44;;;;;;;7.93;2.47;;;8.30;99.90;;;;;;5023883;28;20490;-95
2023/02/02 09:14:12;;;;;;;7.63;1.25;;;8.30;99.90;;;;;;5032092;28;20380;-95
2023/02/02 09:16:37;;;;;;;4.90;1.58;;;8.30;99.90;;;;;;5037066;28;20035;-95
2023/02/02 09:19:06;;;;;;;5.07;1.60;;;8.40;99.90;;;;;;5038077;28;20021;-95
2023/02/02 09:21:35;;;;;;;3.53;1.60;;;8.40;99.90;;;;;;5037742;28;20017;-93
2023/02/02 09:24:06;;;;;;;5.57;2.40;;;8.50;99.90;;;;;;5036018;28;20056;-95
2023/02/02 09:26:36;;;;;;;8.65;2.00;;;8.50;99.90;;;;;;5040861;28;20045;-95
2023/02/02 09:29:04;;;;;;;7.28;1.95;;;8.60;99.90;;;;;;5052527;28;20042;-95
2023/02/02 09:31:35;;;;;;;7.63;1.88;;;8.70;99.90;;;;;;5046452;28;20044;-95
2023/02/02 09:34:05;;;;;;;4.78;1.33;;;8.80;99.90;;;;;;5036683;28;20014;-94
2023/02/02 09:36:31;;;;;;;7.43;1.67;;;8.90;99.90;;;;;;5027678;28;20032;-95
2023/02/02 09:38:57;;;;;;;7.82;2.78;;;9.00;99.90;;;;;;5032264;28;20029;-95
2023/02/02 09:41:32;;;;;;;3.38;1.35;;;9.00;99.90;;;;;;5028548;28;20029;-94
2023/02/02 09:44:28;;;;;;;3.25;1.52;;;9.00;99.90;;;;;;5016736;28;20116;-95
2023/02/02 09:47:17;;;;;;;1.13;0.88;;;9.00;99.90;;;;;;5026980;28;20025;-94
2023/02/02 09:50:10;;;;;;;4.60;0.90;;;9.00;99.90;;;;;;5023466;28;20040;-95
2023/02/02 09:53:12;;;;;;;2.47;1.10;;;9.00;99.90;;;;;;5037367;28;20021;-93
2023/02/02 09:55:44;;;;;;;3.63;1.08;;;8.90;99.90;;;;;;4985060;28;20036;-94
2023/02/02 09:58:17;;;;;;;1.63;0.85;;;8.90;99.90;;;;;;5019027;28;20040;-95
2023/02/02 10:00:51;;;;;;;4.18;1.13;;;8.90;99.90;;;;;;5019900;28;20052;-94
2023/02/02 10:03:23;;;;;;;2.67;1.00;;;8.90;99.90;;;;;;5036515;28;20478;-93
2023/02/02 10:06:03;;;;;;;2.13;0.50;;;8.90;99.90;;;;;;5039498;28;20033;-94
2023/02/02 10:08:50;;;;;;;3.95;0.93;;;8.90;99.90;;;;;;5039367;28;20020;-95
2023/02/02 10:11:26;;;;;;;1.27;0.88;;;8.90;99.90;;;;;;5038556;28;20063;-95
2023/02/02 10:13:59;;;;;;;4.72;0.90;;;8.80;99.90;;;;;;5037519;28;20041;-95
2023/02/02 10:16:25;;;;;;;0.90;0.80;;;8.80;99.90;;;;;;5040017;28;20025;-96
2023/02/02 10:18:57;;;;;;;0.98;0.40;;;8.90;99.90;;;;;;5039282;28;20025;-95
2023/02/02 10:21:43;;;;;;;0.60;0.60;;;9.00;99.90;;;;;;5038801;28;20021;-92
2023/02/02 10:24:19;;;;;;;5.35;0.98;;;9.00;99.90;;;;;;5041539;28;20053;-94
2023/02/02 10:27:04;;;;;;;1.48;0.90;;;9.00;99.90;;;;;;5041599;28;20021;-94
2023/02/02 10:29:55;;;;;;;1.20;1.10;;;9.00;99.90;;;;;;5040235;28;20545;-94
2023/02/02 10:32:40;;;;;;;2.35;1.40;;;8.90;99.90;;;;;;5042375;28;20033;-95
2023/02/02 10:35:36;;;;;;;4.25;1.23;;;8.90;99.90;;;;;;5044790;28;20120;-95
2023/02/02 10:38:41;;;;;;;0.80;0.80;;;8.90;99.90;;;;;;5043765;28;20017;-96
2023/02/02 10:41:20;;;;;;;2.00;1.15;;;8.90;99.90;;;;;;5023989;28;20509;-96
2023/02/02 10:43:58;;;;;;;3.20;1.45;;;8.90;99.90;;;;;;5040450;28;20484;-95
2023/02/02 10:46:27;;;;;;;1.70;0.90;;;8.90;99.90;;;;;;5041535;28;20057;-94
2023/02/02 10:49:15;;;;;;;2.20;1.17;;;8.90;99.90;;;;;;5041528;28;20025;-95
2023/02/02 10:52:01;;;;;;;4.85;1.08;;;8.90;99.90;;;;;;5041788;28;20037;-94
2023/02/02 10:54:42;;;;;;;1.25;1.05;;;8.90;99.90;;;;;;5044644;28;20057;-96
2023/02/02 10:57:11;;;;;;;4.93;1.00;;;8.90;99.90;;;;;;5041702;28;20025;-96
2023/02/02 11:00:18;;;;;;;0.80;0.80;;;8.90;99.90;;;;;;5042246;28;20025;-95
2023/02/02 11:02:46;;;;;;;1.85;0.80;;;8.90;99.90;;;;;;5038537;28;20394;-96
2023/02/02 11:08:24;;;;;;;1.70;0.70;;;9.00;99.90;;;;;;5060497;28;20091;-96
2023/02/02 11:10:53;;;;;;;0.45;0.30;;;8.90;99.90;;;;;;5040674;28;20552;-95
2023/02/02 11:13:33;;;;;;;1.38;0.40;;;9.00;99.90;;;;;;5039475;28;20052;-94
2023/02/02 11:16:14;;;;;;;4.18;0.50;;;9.00;99.90;;;;;;5039239;28;20036;-96
2023/02/02 11:18:42;;;;;;;2.10;0.60;;;9.00;99.90;;;;;;5044213;28;20032;-93
2023/02/02 11:21:25;;;;;;;1.42;0.50;;;9.00;99.90;;;;;;5044570;28;20033;-94
2023/02/02 11:24:05;;;;;;;2.10;1.10;;;9.00;99.90;;;;;;5045025;28;20029;-94
2023/02/02 11:26:47;;;;;;;1.40;0.60;;;9.10;99.90;;;;;;5024430;28;20047;-93
2023/02/02 11:29:41;;;;;;;2.95;0.90;;;9.10;99.90;;;;;;5041245;28;20025;-95
2023/02/02 11:32:36;;;;;;;2.08;0.70;;;9.00;99.90;;;;;;5042536;28;20037;-96
2023/02/02 11:35:19;;;;;;;1.40;0.70;;;9.10;99.90;;;;;;5045449;28;20079;-96
2023/02/02 11:38:05;;;;;;;1.35;0.50;;;9.10;99.90;;;;;;5041619;28;20069;-95
2023/02/02 11:40:33;;;;;;;2.72;0.80;;;9.00;99.90;;;;;;5041169;28;20032;-94
2023/02/02 11:43:03;;;;;;;6.75;1.00;;;9.10;99.90;;;;;;5042976;28;20025;-96
2023/02/02 11:45:34;;;;;;;1.67;0.52;;;9.10;99.90;;;;;;5039648;28;20064;-94
2023/02/02 11:48:40;;;;;;;1.23;0.65;;;9.10;99.90;;;;;;5042236;28;20028;-93
2023/02/02 11:51:18;;;;;;;3.35;0.75;;;9.10;99.90;;;;;;5039761;28;20147;-96
2023/02/02 11:53:47;;;;;;;3.42;0.60;;;9.20;99.90;;;;;;5050768;28;20021;-96
2023/02/02 11:56:24;;;;;;;3.53;0.93;;;9.10;99.90;;;;;;5040102;28;20097;-95
2023/02/02 11:58:57;;;;;;;0.95;0.60;;;9.10;99.90;;;;;;5037982;28;20097;-95
2023/02/02 12:01:38;;;;;;;1.83;0.50;;;9.10;99.90;;;;;;5039404;28;20032;-95
2023/02/02 12:04:15;;;;;;;1.92;0.90;;;9.20;99.90;;;;;;5057340;28;20025;-96
2023/02/02 12:06:41;;;;;;;2.63;1.10;;;9.10;99.90;;;;;;5039841;28;20029;-96
2023/02/02 12:09:13;;;;;;;1.10;1.00;;;9.20;99.90;;;;;;5028703;28;20040;-96
2023/02/02 12:11:53;;;;;;;1.67;0.90;;;9.10;99.90;;;;;;5041693;28;20139;-96
2023/02/02 12:14:38;;;;;;;;;;;9.10;99.90;;;;;;5041164;28;20056;-93
2023/02/02 12:17:03;;;;;;;2.65;0.90;;;9.10;99.90;;;;;;5040227;28;19912;-95
2023/02/02 12:19:41;;;;;;;1.20;0.85;;;9.10;99.90;;;;;;5038971;28;20139;-94
2023/02/02 12:22:35;;;;;;;1.05;0.52;;;9.10;99.90;;;;;;5038863;28;20021;-95
2023/02/02 12:25:36;;;;;;;0.93;0.60;;;9.10;99.90;;;;;;5043643;28;20079;-95
2023/02/02 12:28:01;;;;;;;;;;;9.10;99.90;;;;;;5047679;28;20123;-95
2023/02/02 12:30:52;;;;;;;1.45;0.60;;;9.10;99.90;;;;;;5046233;28;19955;-94
2023/02/02 12:33:33;;;;;;;2.00;1.00;;;9.10;99.90;;;;;;5041647;28;20017;-95
2023/02/02 12:36:02;;;;;;;0.40;0.30;;;9.10;99.90;;;;;;5041024;28;20058;-96
2023/02/02 12:38:34;;;;;;;1.80;0.50;;;9.10;99.90;;;;;;5044303;28;20474;-95
2023/02/02 12:41:14;;;;;;;1.77;0.65;;;9.10;99.90;;;;;;5042000;28;20040;-94
2023/02/02 12:44:04;;;;;;;1.23;0.38;;;9.20;99.90;;;;;;5044823;28;20119;-92
2023/02/02 12:47:14;;;;;;;1.20;0.40;;;9.20;99.90;;;;;;5039848;28;20040;-95
2023/02/02 12:50:11;;;;;;;1.95;0.40;;;9.20;99.90;;;;;;5042579;28;20029;-94
2023/02/02 12:53:18;;;;;;;0.98;0.40;;;9.20;99.90;;;;;;5045378;28;20029;-93
2023/02/02 12:56:09;;;;;;;1.13;0.60;;;9.20;99.90;;;;;;5045799;28;20037;-96
2023/02/02 12:58:53;;;;;;;0.28;0.28;;;9.20;99.90;;;;;;5039872;28;20715;-94
2023/02/02 13:01:43;;;;;;;0.60;0.52;;;9.20;99.90;;;;;;5045569;28;20032;-95
2023/02/02 13:04:45;;;;;;;1.73;0.70;;;9.20;99.90;;;;;;5040417;28;20494;-94
2023/02/02 13:07:43;;;;;;;1.75;0.80;;;9.20;99.90;;;;;;5043650;28;20539;-94
2023/02/02 13:10:28;;;;;;;5.50;1.00;;;9.20;99.90;;;;;;5053821;28;20052;-93
2023/02/02 13:13:03;;;;;;;2.33;1.10;;;9.20;99.90;;;;;;5044714;28;20040;-94
2023/02/02 13:15:34;;;;;;;2.55;0.90;;;9.20;99.90;;;;;;5040877;28;20043;-94
2023/02/02 13:18:06;;;;;;;2.47;1.02;;;9.20;99.90;;;;;;5041433;28;20021;-96
2023/02/02 13:20:45;;;;;;;1.23;1.13;;;9.20;99.90;;;;;;5041285;28;20047;-95
2023/02/02 13:23:34;;;;;;;1.33;0.88;;;9.20;99.90;;;;;;5042623;28;20033;-95
2023/02/02 13:26:21;;;;;;;1.80;0.63;;;9.20;99.90;;;;;;5042538;28;20021;-94
2023/02/02 13:29:02;;;;;;;5.85;1.00;;;9.20;99.90;;;;;;5045319;28;20029;-96
2023/02/02 13:31:35;;;;;;;3.53;1.20;;;9.20;99.90;;;;;;5043991;28;20064;-94
2023/02/02 13:34:16;;;;;;;1.50;0.60;;;9.20;99.90;;;;;;5044536;28;20028;-96